sensor_id;sensor_type;location;lat;lon;timestamp;pressure;altitude;pressure_sealevel;temperature;humidity
10482;BME280;5288;42.334;23.876;2024-03-06T00:01:31;56594.91;;;-140.56;100.00
10482;BME280;5288;42.334;23.876;2024-03-06T00:03:59;56573.16;;;-140.56;100.00
10482;BME280;5288;42.334;23.876;2024-03-06T00:06:27;56585.03;;;-140.56;100.00
10482;BME280;5288;42.334;23.876;2024-03-06T00:08:55;56604.78;;;-140.56;100.00
10482;BME280;5288;42.334;23.876;2024-03-06T00:11:23;56571.19;;;-140.56;100.00
10482;BME280;5288;42.334;23.876;2024-03-06T00:13:50;56590.94;;;-140.56;100.00
10482;BME280;5288;42.334;23.876;2024-03-06T00:16:17;56626.53;;;-140.56;100.00
10482;BME280;5288;42.334;23.876;2024-03-06T00:18:44;56573.16;;;-140.56;100.00
10482;BME280;5288;42.334;23.876;2024-03-06T00:21:10;56553.41;;;-140.56;100.00
10482;BME280;5288;42.334;23.876;2024-03-06T00:23:39;56573.16;;;-140.56;100.00
10482;BME280;5288;42.334;23.876;2024-03-06T00:26:06;56581.06;;;-140.56;100.00
10482;BME280;5288;42.334;23.876;2024-03-06T00:28:33;56573.16;;;-140.56;100.00
10482;BME280;5288;42.334;23.876;2024-03-06T00:31:00;56571.19;;;-140.56;100.00
10482;BME280;5288;42.334;23.876;2024-03-06T00:33:28;56581.06;;;-140.56;100.00
10482;BME280;5288;42.334;23.876;2024-03-06T00:35:55;56583.03;;;-140.56;100.00
10482;BME280;5288;42.334;23.876;2024-03-06T00:38:22;56571.19;;;-140.56;100.00
10482;BME280;5288;42.334;23.876;2024-03-06T00:40:50;56513.88;;;-140.56;100.00
10482;BME280;5288;42.334;23.876;2024-03-06T00:43:17;56592.94;;;-140.56;100.00
10482;BME280;5288;42.334;23.876;2024-03-06T00:45:44;56567.22;;;-140.56;100.00
10482;BME280;5288;42.334;23.876;2024-03-06T00:48:11;56604.78;;;-140.56;100.00
10482;BME280;5288;42.334;23.876;2024-03-06T00:50:38;56583.03;;;-140.56;100.00
10482;BME280;5288;42.334;23.876;2024-03-06T00:53:06;56583.03;;;-140.56;100.00
10482;BME280;5288;42.334;23.876;2024-03-06T00:55:33;56598.84;;;-140.56;100.00
10482;BME280;5288;42.334;23.876;2024-03-06T00:58:01;56577.13;;;-140.56;100.00
10482;BME280;5288;42.334;23.876;2024-03-06T01:00:29;56594.91;;;-140.56;100.00
10482;BME280;5288;42.334;23.876;2024-03-06T01:02:56;56563.28;;;-140.56;100.00
10482;BME280;5288;42.334;23.876;2024-03-06T01:05:23;56596.88;;;-140.56;100.00
10482;BME280;5288;42.334;23.876;2024-03-06T01:07:50;56606.75;;;-140.56;100.00
10482;BME280;5288;42.334;23.876;2024-03-06T01:10:17;56575.13;;;-140.56;100.00
10482;BME280;5288;42.334;23.876;2024-03-06T01:12:44;56573.16;;;-140.56;100.00
10482;BME280;5288;42.334;23.876;2024-03-06T01:15:13;56561.31;;;-140.56;100.00
10482;BME280;5288;42.334;23.876;2024-03-06T01:17:40;56596.88;;;-140.56;100.00
10482;BME280;5288;42.334;23.876;2024-03-06T01:20:08;56598.84;;;-140.56;100.00
10482;BME280;5288;42.334;23.876;2024-03-06T01:22:35;56581.06;;;-140.56;100.00
10482;BME280;5288;42.334;23.876;2024-03-06T01:25:02;56567.22;;;-140.56;100.00
10482;BME280;5288;42.334;23.876;2024-03-06T01:27:30;56577.13;;;-140.56;100.00
10482;BME280;5288;42.334;23.876;2024-03-06T01:29:57;56583.03;;;-140.56;100.00
10482;BME280;5288;42.334;23.876;2024-03-06T01:32:25;56571.19;;;-140.56;100.00
10482;BME280;5288;42.334;23.876;2024-03-06T01:34:52;56620.59;;;-140.56;100.00
10482;BME280;5288;42.334;23.876;2024-03-06T01:37:19;56585.03;;;-140.56;100.00
10482;BME280;5288;42.334;23.876;2024-03-06T01:39:46;56583.03;;;-140.56;100.00
10482;BME280;5288;42.334;23.876;2024-03-06T01:42:16;56577.13;;;-140.56;100.00
10482;BME280;5288;42.334;23.876;2024-03-06T01:44:43;56585.03;;;-140.56;100.00
10482;BME280;5288;42.334;23.876;2024-03-06T01:47:10;56638.38;;;-140.56;100.00
10482;BME280;5288;42.334;23.876;2024-03-06T01:49:39;56563.28;;;-140.56;100.00
10482;BME280;5288;42.334;23.876;2024-03-06T01:52:07;56596.88;;;-140.56;100.00
10482;BME280;5288;42.334;23.876;2024-03-06T01:54:35;56608.75;;;-140.56;100.00
10482;BME280;5288;42.334;23.876;2024-03-06T01:57:03;56569.22;;;-140.56;100.00
10482;BME280;5288;42.334;23.876;2024-03-06T01:59:30;56640.38;;;-140.56;100.00
10482;BME280;5288;42.334;23.876;2024-03-06T02:01:57;56588.97;;;-140.56;100.00
10482;BME280;5288;42.334;23.876;2024-03-06T02:04:27;56632.47;;;-140.56;100.00
10482;BME280;5288;42.334;23.876;2024-03-06T02:06:55;56618.63;;;-140.56;100.00
10482;BME280;5288;42.334;23.876;2024-03-06T02:09:23;56614.66;;;-140.56;100.00
10482;BME280;5288;42.334;23.876;2024-03-06T02:11:50;56652.22;;;-140.56;100.00
10482;BME280;5288;42.334;23.876;2024-03-06T02:14:17;56604.78;;;-140.56;100.00
10482;BME280;5288;42.334;23.876;2024-03-06T02:16:44;56624.56;;;-140.56;100.00
10482;BME280;5288;42.334;23.876;2024-03-06T02:19:11;56612.69;;;-140.56;100.00
10482;BME280;5288;42.334;23.876;2024-03-06T02:21:40;56573.16;;;-140.56;100.00
10482;BME280;5288;42.334;23.876;2024-03-06T02:24:07;56577.13;;;-140.56;100.00
10482;BME280;5288;42.334;23.876;2024-03-06T02:26:37;56588.97;;;-140.56;100.00
10482;BME280;5288;42.334;23.876;2024-03-06T02:29:04;56624.56;;;-140.56;100.00
10482;BME280;5288;42.334;23.876;2024-03-06T02:31:31;56618.63;;;-140.56;100.00
10482;BME280;5288;42.334;23.876;2024-03-06T02:33:59;56598.84;;;-140.56;100.00
10482;BME280;5288;42.334;23.876;2024-03-06T02:36:30;56598.84;;;-140.56;100.00
10482;BME280;5288;42.334;23.876;2024-03-06T02:38:59;56654.19;;;-140.56;100.00
10482;BME280;5288;42.334;23.876;2024-03-06T02:41:34;56606.75;;;-140.56;100.00
10482;BME280;5288;42.334;23.876;2024-03-06T02:44:01;56630.47;;;-140.56;100.00
10482;BME280;5288;42.334;23.876;2024-03-06T02:46:29;56600.84;;;-140.56;100.00
10482;BME280;5288;42.334;23.876;2024-03-06T02:48:56;56614.66;;;-140.56;100.00
10482;BME280;5288;42.334;23.876;2024-03-06T02:51:23;56614.66;;;-140.56;100.00
10482;BME280;5288;42.334;23.876;2024-03-06T02:53:50;56594.91;;;-140.56;100.00
10482;BME280;5288;42.334;23.876;2024-03-06T02:56:20;56614.66;;;-140.56;100.00
10482;BME280;5288;42.334;23.876;2024-03-06T02:58:47;56590.94;;;-140.56;100.00
10482;BME280;5288;42.334;23.876;2024-03-06T03:01:14;56638.38;;;-140.56;100.00
10482;BME280;5288;42.334;23.876;2024-03-06T03:03:43;56620.59;;;-140.56;100.00
10482;BME280;5288;42.334;23.876;2024-03-06T03:06:12;56610.72;;;-140.56;100.00
10482;BME280;5288;42.334;23.876;2024-03-06T03:08:39;56632.47;;;-140.56;100.00
10482;BME280;5288;42.334;23.876;2024-03-06T03:11:06;56638.38;;;-140.56;100.00
10482;BME280;5288;42.334;23.876;2024-03-06T03:13:35;56632.47;;;-140.56;100.00
10482;BME280;5288;42.334;23.876;2024-03-06T03:16:02;56626.53;;;-140.56;100.00
10482;BME280;5288;42.334;23.876;2024-03-06T03:18:29;56614.66;;;-140.56;100.00
10482;BME280;5288;42.334;23.876;2024-03-06T03:20:56;56618.63;;;-140.56;100.00
10482;BME280;5288;42.334;23.876;2024-03-06T03:23:23;56648.28;;;-140.56;100.00
10482;BME280;5288;42.334;23.876;2024-03-06T03:25:50;56588.97;;;-140.56;100.00
10482;BME280;5288;42.334;23.876;2024-03-06T03:28:17;56648.28;;;-140.56;100.00
10482;BME280;5288;42.334;23.876;2024-03-06T03:30:45;56598.84;;;-140.56;100.00
10482;BME280;5288;42.334;23.876;2024-03-06T03:33:13;56581.06;;;-140.56;100.00
10482;BME280;5288;42.334;23.876;2024-03-06T03:35:39;56598.84;;;-140.56;100.00
10482;BME280;5288;42.334;23.876;2024-03-06T03:38:06;56630.47;;;-140.56;100.00
10482;BME280;5288;42.334;23.876;2024-03-06T03:40:34;56630.47;;;-140.56;100.00
10482;BME280;5288;42.334;23.876;2024-03-06T03:43:01;56600.84;;;-140.56;100.00
10482;BME280;5288;42.334;23.876;2024-03-06T03:45:32;56587.00;;;-140.56;100.00
10482;BME280;5288;42.334;23.876;2024-03-06T03:48:02;56622.56;;;-140.56;100.00
10482;BME280;5288;42.334;23.876;2024-03-06T03:50:29;56642.34;;;-140.56;100.00
10482;BME280;5288;42.334;23.876;2024-03-06T03:52:57;56594.91;;;-140.56;100.00
10482;BME280;5288;42.334;23.876;2024-03-06T03:55:26;56644.31;;;-140.56;100.00
10482;BME280;5288;42.334;23.876;2024-03-06T03:57:53;56606.75;;;-140.56;100.00
10482;BME280;5288;42.334;23.876;2024-03-06T04:00:20;56587.00;;;-140.56;100.00
10482;BME280;5288;42.334;23.876;2024-03-06T04:02:48;56606.75;;;-140.56;100.00
10482;BME280;5288;42.334;23.876;2024-03-06T04:05:17;56583.03;;;-140.56;100.00
10482;BME280;5288;42.334;23.876;2024-03-06T04:07:44;56587.00;;;-140.56;100.00
10482;BME280;5288;42.334;23.876;2024-03-06T04:10:11;56573.16;;;-140.56;100.00
10482;BME280;5288;42.334;23.876;2024-03-06T04:12:38;56646.28;;;-140.56;100.00
10482;BME280;5288;42.334;23.876;2024-03-06T04:15:06;56604.78;;;-140.56;100.00
10482;BME280;5288;42.334;23.876;2024-03-06T04:17:34;56612.69;;;-140.56;100.00
10482;BME280;5288;42.334;23.876;2024-03-06T04:20:02;56638.38;;;-140.56;100.00
10482;BME280;5288;42.334;23.876;2024-03-06T04:22:31;56626.53;;;-140.56;100.00
10482;BME280;5288;42.334;23.876;2024-03-06T04:24:58;56632.47;;;-140.56;100.00
10482;BME280;5288;42.334;23.876;2024-03-06T04:27:25;56644.31;;;-140.56;100.00
10482;BME280;5288;42.334;23.876;2024-03-06T04:29:52;56618.63;;;-140.56;100.00
10482;BME280;5288;42.334;23.876;2024-03-06T04:32:19;56608.75;;;-140.56;100.00
10482;BME280;5288;42.334;23.876;2024-03-06T04:34:46;56634.44;;;-140.56;100.00
10482;BME280;5288;42.334;23.876;2024-03-06T04:37:13;56646.28;;;-140.56;100.00
10482;BME280;5288;42.334;23.876;2024-03-06T04:39:41;56632.47;;;-140.56;100.00
10482;BME280;5288;42.334;23.876;2024-03-06T04:42:08;56640.38;;;-140.56;100.00
10482;BME280;5288;42.334;23.876;2024-03-06T04:44:36;56590.94;;;-140.56;100.00
10482;BME280;5288;42.334;23.876;2024-03-06T04:47:03;56622.56;;;-140.56;100.00
10482;BME280;5288;42.334;23.876;2024-03-06T04:49:33;56622.56;;;-140.56;100.00
10482;BME280;5288;42.334;23.876;2024-03-06T04:52:00;56630.47;;;-140.56;100.00
10482;BME280;5288;42.334;23.876;2024-03-06T04:54:28;56626.53;;;-140.56;100.00
10482;BME280;5288;42.334;23.876;2024-03-06T04:56:57;56612.69;;;-140.56;100.00
10482;BME280;5288;42.334;23.876;2024-03-06T04:59:24;56634.44;;;-140.56;100.00
10482;BME280;5288;42.334;23.876;2024-03-06T05:01:51;56598.84;;;-140.56;100.00
10482;BME280;5288;42.334;23.876;2024-03-06T05:04:18;56642.34;;;-140.56;100.00
10482;BME280;5288;42.334;23.876;2024-03-06T05:06:46;56664.09;;;-140.56;100.00
10482;BME280;5288;42.334;23.876;2024-03-06T05:09:13;56650.25;;;-140.56;100.00
10482;BME280;5288;42.334;23.876;2024-03-06T05:11:40;56626.53;;;-140.56;100.00
10482;BME280;5288;42.334;23.876;2024-03-06T05:14:09;56620.59;;;-140.56;100.00
10482;BME280;5288;42.334;23.876;2024-03-06T05:16:36;56581.06;;;-140.56;100.00
10482;BME280;5288;42.334;23.876;2024-03-06T05:19:03;56618.63;;;-140.56;100.00
10482;BME280;5288;42.334;23.876;2024-03-06T05:21:30;56636.41;;;-140.56;100.00
10482;BME280;5288;42.334;23.876;2024-03-06T05:23:57;56628.50;;;-140.56;100.00
10482;BME280;5288;42.334;23.876;2024-03-06T05:26:24;56614.66;;;-140.56;100.00
10482;BME280;5288;42.334;23.876;2024-03-06T05:28:51;56626.53;;;-140.56;100.00
10482;BME280;5288;42.334;23.876;2024-03-06T05:31:20;56622.56;;;-140.56;100.00
10482;BME280;5288;42.334;23.876;2024-03-06T05:33:49;56622.56;;;-140.56;100.00
10482;BME280;5288;42.334;23.876;2024-03-06T05:36:16;56590.94;;;-140.56;100.00
10482;BME280;5288;42.334;23.876;2024-03-06T05:38:44;56636.41;;;-140.56;100.00
10482;BME280;5288;42.334;23.876;2024-03-06T05:41:11;56588.97;;;-140.56;100.00
10482;BME280;5288;42.334;23.876;2024-03-06T05:43:38;56652.22;;;-140.56;100.00
10482;BME280;5288;42.334;23.876;2024-03-06T05:46:06;56650.25;;;-140.56;100.00
10482;BME280;5288;42.334;23.876;2024-03-06T05:48:34;56604.78;;;-140.56;100.00
10482;BME280;5288;42.334;23.876;2024-03-06T05:51:02;56610.72;;;-140.56;100.00
10482;BME280;5288;42.334;23.876;2024-03-06T05:53:29;56606.75;;;-140.56;100.00
10482;BME280;5288;42.334;23.876;2024-03-06T05:55:56;56648.28;;;-140.56;100.00
10482;BME280;5288;42.334;23.876;2024-03-06T05:58:23;56616.66;;;-140.56;100.00
10482;BME280;5288;42.334;23.876;2024-03-06T06:00:50;56628.50;;;-140.56;100.00
10482;BME280;5288;42.334;23.876;2024-03-06T06:03:17;56561.31;;;-140.56;100.00
10482;BME280;5288;42.334;23.876;2024-03-06T06:05:45;56587.00;;;-140.56;100.00
10482;BME280;5288;42.334;23.876;2024-03-06T06:08:12;56632.47;;;-140.56;100.00
10482;BME280;5288;42.334;23.876;2024-03-06T06:10:39;56620.59;;;-140.56;100.00
10482;BME280;5288;42.334;23.876;2024-03-06T06:13:06;56618.63;;;-140.56;100.00
10482;BME280;5288;42.334;23.876;2024-03-06T06:15:33;56630.47;;;-140.56;100.00
10482;BME280;5288;42.334;23.876;2024-03-06T06:18:00;56604.78;;;-140.56;100.00
10482;BME280;5288;42.334;23.876;2024-03-06T06:20:27;56618.63;;;-140.56;100.00
10482;BME280;5288;42.334;23.876;2024-03-06T06:22:56;56600.84;;;-140.56;100.00
10482;BME280;5288;42.334;23.876;2024-03-06T06:25:23;56600.84;;;-140.56;100.00
10482;BME280;5288;42.334;23.876;2024-03-06T06:27:50;56628.50;;;-140.56;100.00
10482;BME280;5288;42.334;23.876;2024-03-06T06:30:17;56628.50;;;-140.56;100.00
10482;BME280;5288;42.334;23.876;2024-03-06T06:32:44;56583.03;;;-140.56;100.00
10482;BME280;5288;42.334;23.876;2024-03-06T06:35:12;56577.13;;;-140.56;100.00
10482;BME280;5288;42.334;23.876;2024-03-06T06:37:39;56636.41;;;-140.56;100.00
10482;BME280;5288;42.334;23.876;2024-03-06T06:40:09;56588.97;;;-140.56;100.00
10482;BME280;5288;42.334;23.876;2024-03-06T06:42:44;56618.63;;;-140.56;100.00
10482;BME280;5288;42.334;23.876;2024-03-06T06:45:13;56600.84;;;-140.56;100.00
10482;BME280;5288;42.334;23.876;2024-03-06T06:47:40;56575.13;;;-140.56;100.00
10482;BME280;5288;42.334;23.876;2024-03-06T06:50:07;56614.66;;;-140.56;100.00
10482;BME280;5288;42.334;23.876;2024-03-06T06:52:34;56606.75;;;-140.56;100.00
10482;BME280;5288;42.334;23.876;2024-03-06T06:55:02;56594.91;;;-140.56;100.00
10482;BME280;5288;42.334;23.876;2024-03-06T06:57:31;56563.28;;;-140.56;100.00
10482;BME280;5288;42.334;23.876;2024-03-06T06:59:58;56561.31;;;-140.56;100.00
10482;BME280;5288;42.334;23.876;2024-03-06T07:02:25;56547.47;;;-140.56;100.00
10482;BME280;5288;42.334;23.876;2024-03-06T07:04:53;56583.03;;;-140.56;100.00
10482;BME280;5288;42.334;23.876;2024-03-06T07:07:20;56569.22;;;-140.56;100.00
10482;BME280;5288;42.334;23.876;2024-03-06T07:09:48;56521.78;;;-140.56;100.00
10482;BME280;5288;42.334;23.876;2024-03-06T07:12:15;56559.31;;;-140.56;100.00
10482;BME280;5288;42.334;23.876;2024-03-06T07:14:44;56577.13;;;-140.56;100.00
10482;BME280;5288;42.334;23.876;2024-03-06T07:17:11;56602.81;;;-140.56;100.00
10482;BME280;5288;42.334;23.876;2024-03-06T07:19:38;56588.97;;;-140.56;100.00
10482;BME280;5288;42.334;23.876;2024-03-06T07:22:05;56579.09;;;-140.56;100.00
10482;BME280;5288;42.334;23.876;2024-03-06T07:24:35;56590.94;;;-140.56;100.00
10482;BME280;5288;42.334;23.876;2024-03-06T07:27:02;56563.28;;;-140.56;100.00
10482;BME280;5288;42.334;23.876;2024-03-06T07:29:29;56563.28;;;-140.56;100.00
10482;BME280;5288;42.334;23.876;2024-03-06T07:31:58;56545.50;;;-140.56;100.00
10482;BME280;5288;42.334;23.876;2024-03-06T07:34:25;56577.13;;;-140.56;100.00
10482;BME280;5288;42.334;23.876;2024-03-06T07:36:53;56579.09;;;-140.56;100.00
10482;BME280;5288;42.334;23.876;2024-03-06T07:39:20;56551.41;;;-140.56;100.00
10482;BME280;5288;42.334;23.876;2024-03-06T07:41:47;56583.03;;;-140.56;100.00
10482;BME280;5288;42.334;23.876;2024-03-06T07:44:14;56535.59;;;-140.56;100.00
10482;BME280;5288;42.334;23.876;2024-03-06T07:46:41;56555.38;;;-140.56;100.00
10482;BME280;5288;42.334;23.876;2024-03-06T07:49:09;56533.63;;;-140.56;100.00
10482;BME280;5288;42.334;23.876;2024-03-06T07:51:36;56519.81;;;-140.56;100.00
10482;BME280;5288;42.334;23.876;2024-03-06T07:54:03;56509.91;;;-140.56;100.00
10482;BME280;5288;42.334;23.876;2024-03-06T07:56:30;56533.63;;;-140.56;100.00
10482;BME280;5288;42.334;23.876;2024-03-06T07:58:57;56549.44;;;-140.56;100.00
10482;BME280;5288;42.334;23.876;2024-03-06T08:01:24;56515.84;;;-140.56;100.00
10482;BME280;5288;42.334;23.876;2024-03-06T08:03:54;56509.91;;;-140.56;100.00
10482;BME280;5288;42.334;23.876;2024-03-06T08:06:23;56511.91;;;-140.56;100.00
10482;BME280;5288;42.334;23.876;2024-03-06T08:08:50;56482.25;;;-140.56;100.00
10482;BME280;5288;42.334;23.876;2024-03-06T08:11:17;56519.81;;;-140.56;100.00
10482;BME280;5288;42.334;23.876;2024-03-06T08:13:49;56509.91;;;-140.56;100.00
10482;BME280;5288;42.334;23.876;2024-03-06T08:16:16;56539.56;;;-140.56;100.00
10482;BME280;5288;42.334;23.876;2024-03-06T08:18:43;56527.72;;;-140.56;100.00
10482;BME280;5288;42.334;23.876;2024-03-06T08:21:10;56474.34;;;-140.56;100.00
10482;BME280;5288;42.334;23.876;2024-03-06T08:23:39;56504.00;;;-140.56;100.00
10482;BME280;5288;42.334;23.876;2024-03-06T08:26:06;56523.75;;;-140.56;100.00
10482;BME280;5288;42.334;23.876;2024-03-06T08:28:33;56482.25;;;-140.56;100.00
10482;BME280;5288;42.334;23.876;2024-03-06T08:31:00;56494.09;;;-140.56;100.00
10482;BME280;5288;42.334;23.876;2024-03-06T08:33:27;56478.28;;;-140.56;100.00
10482;BME280;5288;42.334;23.876;2024-03-06T08:35:54;56488.19;;;-140.56;100.00
10482;BME280;5288;42.334;23.876;2024-03-06T08:38:21;56509.91;;;-140.56;99.12
10482;BME280;5288;42.334;23.876;2024-03-06T08:40:50;56458.53;;;-140.56;100.00
10482;BME280;5288;42.334;23.876;2024-03-06T08:43:17;56478.28;;;-140.56;100.00
10482;BME280;5288;42.334;23.876;2024-03-06T08:45:45;56484.22;;;-140.56;97.46
10482;BME280;5288;42.334;23.876;2024-03-06T08:48:12;56494.09;;;-140.56;98.65
10482;BME280;5288;42.334;23.876;2024-03-06T08:50:39;56482.25;;;-140.56;98.41
10482;BME280;5288;42.334;23.876;2024-03-06T08:53:06;56486.19;;;-140.56;95.76
10482;BME280;5288;42.334;23.876;2024-03-06T08:55:35;56488.19;;;-140.56;97.76
10482;BME280;5288;42.334;23.876;2024-03-06T08:58:03;56454.59;;;-140.56;94.45
10482;BME280;5288;42.334;23.876;2024-03-06T09:00:30;56478.28;;;-140.56;94.60
10482;BME280;5288;42.334;23.876;2024-03-06T09:02:58;56454.59;;;-140.56;93.49
10482;BME280;5288;42.334;23.876;2024-03-06T09:05:25;56472.38;;;-140.56;88.15
10482;BME280;5288;42.334;23.876;2024-03-06T09:07:52;56474.34;;;-140.56;86.08
10482;BME280;5288;42.334;23.876;2024-03-06T09:10:19;56420.97;;;-140.56;86.88
10482;BME280;5288;42.334;23.876;2024-03-06T09:12:46;56448.66;;;-140.56;86.27
10482;BME280;5288;42.334;23.876;2024-03-06T09:15:15;56426.91;;;-140.56;86.10
10482;BME280;5288;42.334;23.876;2024-03-06T09:17:43;56415.06;;;-140.56;84.47
10482;BME280;5288;42.334;23.876;2024-03-06T09:20:12;56456.56;;;-140.56;80.60
10482;BME280;5288;42.334;23.876;2024-03-06T09:22:39;56448.66;;;-140.56;79.42
10482;BME280;5288;42.334;23.876;2024-03-06T09:25:07;56407.16;;;-140.56;78.64
10482;BME280;5288;42.334;23.876;2024-03-06T09:27:34;56440.75;;;-140.56;80.57
10482;BME280;5288;42.334;23.876;2024-03-06T09:30:02;56409.13;;;-140.56;80.09
10482;BME280;5288;42.334;23.876;2024-03-06T09:32:31;56411.09;;;-140.56;75.64
10482;BME280;5288;42.334;23.876;2024-03-06T09:34:58;56409.13;;;-140.56;74.24
10482;BME280;5288;42.334;23.876;2024-03-06T09:37:25;56424.94;;;-140.56;76.51
10482;BME280;5288;42.334;23.876;2024-03-06T09:39:53;56434.81;;;-140.56;74.62
10482;BME280;5288;42.334;23.876;2024-03-06T09:42:20;56405.16;;;-140.56;75.33
10482;BME280;5288;42.334;23.876;2024-03-06T09:44:48;56411.09;;;-140.56;69.40
10482;BME280;5288;42.334;23.876;2024-03-06T09:47:19;56381.44;;;-140.56;67.28
10482;BME280;5288;42.334;23.876;2024-03-06T09:49:50;56389.34;;;-140.56;65.14
10482;BME280;5288;42.334;23.876;2024-03-06T09:52:19;56417.03;;;-140.56;67.05
10482;BME280;5288;42.334;23.876;2024-03-06T09:54:47;56343.91;;;-140.56;66.08
10482;BME280;5288;42.334;23.876;2024-03-06T09:57:15;56369.59;;;-140.56;64.24
10482;BME280;5288;42.334;23.876;2024-03-06T09:59:42;56353.78;;;-140.56;60.62
10482;BME280;5288;42.334;23.876;2024-03-06T10:02:18;56369.59;;;-140.56;59.26
10482;BME280;5288;42.334;23.876;2024-03-06T10:04:52;56365.66;;;-140.56;55.47
10482;BME280;5288;42.334;23.876;2024-03-06T10:07:20;56328.09;;;-140.56;53.64
10482;BME280;5288;42.334;23.876;2024-03-06T10:09:47;56343.91;;;-140.56;48.44
10482;BME280;5288;42.334;23.876;2024-03-06T10:12:17;56357.75;;;-140.56;48.04
10482;BME280;5288;42.334;23.876;2024-03-06T10:14:49;56334.03;;;-140.56;47.65
10482;BME280;5288;42.334;23.876;2024-03-06T10:17:19;56357.75;;;-140.56;47.41
10482;BME280;5288;42.334;23.876;2024-03-06T10:19:48;56318.22;;;-140.56;46.33
10482;BME280;5288;42.334;23.876;2024-03-06T10:22:19;56324.13;;;-140.56;46.38
10482;BME280;5288;42.334;23.876;2024-03-06T10:24:49;56349.84;;;-140.56;50.76
10482;BME280;5288;42.334;23.876;2024-03-06T10:27:17;56314.25;;;-140.56;48.89
10482;BME280;5288;42.334;23.876;2024-03-06T10:29:44;56369.59;;;-140.56;47.91
10482;BME280;5288;42.334;23.876;2024-03-06T10:32:16;56343.91;;;-140.56;46.51
10482;BME280;5288;42.334;23.876;2024-03-06T10:34:44;56296.47;;;-140.56;47.59
10482;BME280;5288;42.334;23.876;2024-03-06T10:37:11;56320.19;;;-140.56;49.83
10482;BME280;5288;42.334;23.876;2024-03-06T10:39:42;56330.06;;;-140.56;48.10
10482;BME280;5288;42.334;23.876;2024-03-06T10:42:12;56314.25;;;-140.56;46.51
10482;BME280;5288;42.334;23.876;2024-03-06T10:44:44;56302.41;;;-140.56;44.06
10482;BME280;5288;42.334;23.876;2024-03-06T10:47:15;56294.50;;;-140.56;47.06
10482;BME280;5288;42.334;23.876;2024-03-06T10:49:42;56322.16;;;-140.56;45.06
10482;BME280;5288;42.334;23.876;2024-03-06T10:52:09;56314.25;;;-140.56;42.35
10482;BME280;5288;42.334;23.876;2024-03-06T10:54:36;56310.31;;;-140.56;42.67
10482;BME280;5288;42.334;23.876;2024-03-06T10:57:09;56306.34;;;-140.56;42.52
10482;BME280;5288;42.334;23.876;2024-03-06T10:59:37;56302.41;;;-140.56;41.37
10482;BME280;5288;42.334;23.876;2024-03-06T11:02:04;56353.78;;;-140.56;41.61
10482;BME280;5288;42.334;23.876;2024-03-06T11:04:34;56284.63;;;-140.56;40.56
10482;BME280;5288;42.334;23.876;2024-03-06T11:07:01;56290.53;;;-140.56;40.36
10482;BME280;5288;42.334;23.876;2024-03-06T11:09:32;56290.53;;;-140.56;39.24
10482;BME280;5288;42.334;23.876;2024-03-06T11:12:00;56334.03;;;-140.56;39.38
10482;BME280;5288;42.334;23.876;2024-03-06T11:14:31;56270.78;;;-140.56;36.32
10482;BME280;5288;42.334;23.876;2024-03-06T11:17:00;56290.53;;;-140.56;37.98
10482;BME280;5288;42.334;23.876;2024-03-06T11:19:29;56302.41;;;-140.56;38.02
10482;BME280;5288;42.334;23.876;2024-03-06T11:21:56;56278.69;;;-140.56;37.36
10482;BME280;5288;42.334;23.876;2024-03-06T11:24:24;56266.81;;;-140.56;37.59
10482;BME280;5288;42.334;23.876;2024-03-06T11:27:00;56288.56;;;-140.56;37.92
10482;BME280;5288;42.334;23.876;2024-03-06T11:30:02;56274.72;;;-140.56;36.38
10482;BME280;5288;42.334;23.876;2024-03-06T11:32:17;56290.53;;;-140.56;36.65
10482;BME280;5288;42.334;23.876;2024-03-06T11:34:44;56276.72;;;-140.56;37.86
10482;BME280;5288;42.334;23.876;2024-03-06T11:37:12;56300.44;;;-140.56;37.09
10482;BME280;5288;42.334;23.876;2024-03-06T11:39:39;56272.75;;;-140.56;37.40
10482;BME280;5288;42.334;23.876;2024-03-06T11:42:11;56278.69;;;-140.56;37.78
10482;BME280;5288;42.334;23.876;2024-03-06T11:44:54;56282.63;;;-140.56;36.86
10482;BME280;5288;42.334;23.876;2024-03-06T11:47:22;56258.94;;;-140.56;36.48
10482;BME280;5288;42.334;23.876;2024-03-06T11:49:50;56276.72;;;-140.56;37.04
10482;BME280;5288;42.334;23.876;2024-03-06T11:52:18;56276.72;;;-140.56;35.35
10482;BME280;5288;42.334;23.876;2024-03-06T11:54:45;56264.84;;;-140.56;35.47
10482;BME280;5288;42.334;23.876;2024-03-06T11:57:16;56229.28;;;-140.56;35.67
10482;BME280;5288;42.334;23.876;2024-03-06T12:00:09;56243.13;;;-140.56;36.64
10482;BME280;5288;42.334;23.876;2024-03-06T12:02:56;56264.84;;;-140.56;37.28
10482;BME280;5288;42.334;23.876;2024-03-06T12:26:10;56290.53;;;-140.56;37.87
10482;BME280;5288;42.334;23.876;2024-03-06T12:28:38;56302.41;;;-140.56;39.13
10482;BME280;5288;42.334;23.876;2024-03-06T12:31:05;56264.84;;;-140.56;38.54
10482;BME280;5288;42.334;23.876;2024-03-06T12:33:33;56264.84;;;-140.56;38.33
10482;BME280;5288;42.334;23.876;2024-03-06T12:36:03;56300.44;;;-140.56;37.71
10482;BME280;5288;42.334;23.876;2024-03-06T12:38:30;56278.69;;;-140.56;38.64
10482;BME280;5288;42.334;23.876;2024-03-06T12:40:57;56310.31;;;-140.56;39.98
10482;BME280;5288;42.334;23.876;2024-03-06T12:43:26;56290.53;;;-140.56;39.42
10482;BME280;5288;42.334;23.876;2024-03-06T12:45:54;56290.53;;;-140.56;40.73
10482;BME280;5288;42.334;23.876;2024-03-06T12:48:23;56286.59;;;-140.56;39.85
10482;BME280;5288;42.334;23.876;2024-03-06T12:50:51;56243.13;;;-140.56;40.48
10482;BME280;5288;42.334;23.876;2024-03-06T12:53:20;56251.03;;;-140.56;38.15
10482;BME280;5288;42.334;23.876;2024-03-06T12:55:47;56256.94;;;-140.56;38.15
10482;BME280;5288;42.334;23.876;2024-03-06T12:58:14;56274.72;;;-140.56;38.30